Main page
METAR-TAF:

METAR-TAF

Airports :

Évreux-Fauville Air Base

Évreux, France

latitude: 49-01N, longitude: 001-13E, elevation: 141 m

Current weather observation

The report was made 35 minutes ago, at 07:30 UTC
Wind 4 kt from the North/Northeast
Temperature 2°C
Humidity 93%
Pressure 1011 hPa
Visibility: 0650 m
fog

METAR: LFOE 200730Z AUTO 02004KT 0650 R22/0800N FG VV/// 02/01 Q1011 BECMG 8000 NSW BKN008

Time: 09:05 (08:05 UTC)

Forecast

The report was made 6 hours and 5 minutes ago, at 02:00 UTC
Forecast valid from 20 at 03 UTC to 21 at 03 UTC
Wind 3 kt from the North
Visibility: 0500 m
fog
Becoming
from 20 at 06 UTC to 20 at 08 UTC
Visibility: 3000 m
Broken clouds at a height of 200 ft
mist
Becoming
from 20 at 08 UTC to 20 at 10 UTC
Visibility: 8000 m
Broken clouds at a height of 800 ft
Temporary
from 20 at 18 UTC to 21 at 03 UTC
Visibility: 0800 m
fog

TAF: LFOE 200200Z 2003/2103 01003KT 0500 FG VV/// BECMG 2006/2008 3000 BR BKN002 BECMG 2008/2010 8000 NSW BKN008 TEMPO 2018/2103 0800 FG

Weather observations and forecasts of more than 4000 airports (METAR and TAF reports).

The available stations are represented by yellow and red dots on the map.

Hover mouse over dot to see the name of the station.

Then click to see weather observations and forecasts.

To change the map : click on the green buttons with a black cross to zoom in, on the green button with a dash to zoom out, or on the green arrows for adjacent maps.


METAR-TAF: